sensor_id;sensor_type;location;lat;lon;timestamp;pressure;altitude;pressure_sealevel;temperature;humidity
75585;BME280;64162;53.508;10.476;2023-04-09T00:01:41;102401.50;;;7.89;nan
75585;BME280;64162;53.508;10.476;2023-04-09T00:04:07;102399.84;;;7.59;nan
75585;BME280;64162;53.508;10.476;2023-04-09T00:06:34;102397.41;;;7.86;nan
75585;BME280;64162;53.508;10.476;2023-04-09T00:09:01;102400.22;;;7.33;nan
75585;BME280;64162;53.508;10.476;2023-04-09T00:11:27;102391.72;;;7.45;nan
75585;BME280;64162;53.508;10.476;2023-04-09T00:13:54;102399.84;;;7.88;nan
75585;BME280;64162;53.508;10.476;2023-04-09T00:16:20;102396.81;;;7.47;nan
75585;BME280;64162;53.508;10.476;2023-04-09T00:18:47;102397.31;;;7.80;nan
75585;BME280;64162;53.508;10.476;2023-04-09T00:21:13;102391.31;;;7.71;nan
75585;BME280;64162;53.508;10.476;2023-04-09T00:23:42;102397.66;;;7.62;nan
75585;BME280;64162;53.508;10.476;2023-04-09T00:26:08;102396.47;;;7.65;nan
75585;BME280;64162;53.508;10.476;2023-04-09T00:28:36;102399.84;;;7.73;nan
75585;BME280;64162;53.508;10.476;2023-04-09T00:31:04;102396.59;;;7.71;nan
75585;BME280;64162;53.508;10.476;2023-04-09T00:33:31;102395.13;;;7.69;nan
75585;BME280;64162;53.508;10.476;2023-04-09T00:35:58;102388.00;;;7.92;nan
75585;BME280;64162;53.508;10.476;2023-04-09T00:38:24;102398.75;;;7.68;nan
75585;BME280;64162;53.508;10.476;2023-04-09T00:40:51;102394.16;;;7.84;nan
75585;BME280;64162;53.508;10.476;2023-04-09T00:43:17;102382.59;;;7.71;nan
75585;BME280;64162;53.508;10.476;2023-04-09T00:45:44;102390.00;;;7.52;nan
75585;BME280;64162;53.508;10.476;2023-04-09T00:48:12;102385.56;;;7.53;nan
75585;BME280;64162;53.508;10.476;2023-04-09T00:50:39;102390.66;;;7.69;nan
75585;BME280;64162;53.508;10.476;2023-04-09T00:53:06;102386.84;;;7.72;nan
75585;BME280;64162;53.508;10.476;2023-04-09T00:55:32;102384.06;;;7.73;nan
75585;BME280;64162;53.508;10.476;2023-04-09T00:57:59;102389.19;;;7.52;nan
75585;BME280;64162;53.508;10.476;2023-04-09T01:00:26;102381.59;;;7.72;nan
75585;BME280;64162;53.508;10.476;2023-04-09T01:02:55;102378.16;;;7.71;nan
75585;BME280;64162;53.508;10.476;2023-04-09T01:05:40;102387.34;;;7.38;nan
75585;BME280;64162;53.508;10.476;2023-04-09T01:08:22;102387.69;;;7.72;nan
75585;BME280;64162;53.508;10.476;2023-04-09T01:11:05;102389.25;;;7.81;nan
75585;BME280;64162;53.508;10.476;2023-04-09T01:13:47;102383.94;;;7.52;nan
75585;BME280;64162;53.508;10.476;2023-04-09T01:16:15;102387.94;;;7.63;nan
75585;BME280;64162;53.508;10.476;2023-04-09T01:19:02;102396.25;;;7.51;nan
75585;BME280;64162;53.508;10.476;2023-04-09T01:21:33;102390.69;;;7.32;nan
75585;BME280;64162;53.508;10.476;2023-04-09T01:26:55;102386.22;;;7.55;nan
75585;BME280;64162;53.508;10.476;2023-04-09T01:29:31;102385.25;;;7.71;nan
75585;BME280;64162;53.508;10.476;2023-04-09T01:32:01;102388.94;;;7.62;nan
75585;BME280;64162;53.508;10.476;2023-04-09T01:34:29;102379.78;;;7.58;nan
75585;BME280;64162;53.508;10.476;2023-04-09T01:36:58;102375.88;;;7.68;nan
75585;BME280;64162;53.508;10.476;2023-04-09T01:39:26;102386.56;;;7.67;nan
75585;BME280;64162;53.508;10.476;2023-04-09T01:41:54;102391.13;;;7.58;nan
75585;BME280;64162;53.508;10.476;2023-04-09T01:44:22;102381.72;;;7.41;nan
75585;BME280;64162;53.508;10.476;2023-04-09T01:46:50;102387.31;;;7.61;nan
75585;BME280;64162;53.508;10.476;2023-04-09T01:49:17;102381.59;;;7.57;nan
75585;BME280;64162;53.508;10.476;2023-04-09T01:51:44;102382.72;;;7.40;nan
75585;BME280;64162;53.508;10.476;2023-04-09T01:54:11;102383.09;;;7.51;nan
75585;BME280;64162;53.508;10.476;2023-04-09T01:56:46;102388.00;;;7.40;nan
75585;BME280;64162;53.508;10.476;2023-04-09T01:59:13;102386.13;;;7.26;nan
75585;BME280;64162;53.508;10.476;2023-04-09T02:01:44;102382.75;;;7.54;nan
75585;BME280;64162;53.508;10.476;2023-04-09T02:04:19;102378.41;;;7.62;nan
75585;BME280;64162;53.508;10.476;2023-04-09T02:07:05;102377.78;;;7.60;nan
75585;BME280;64162;53.508;10.476;2023-04-09T02:09:38;102370.78;;;7.52;nan
75585;BME280;64162;53.508;10.476;2023-04-09T02:12:06;102367.94;;;7.39;nan
75585;BME280;64162;53.508;10.476;2023-04-09T02:14:36;102372.50;;;7.45;nan
75585;BME280;64162;53.508;10.476;2023-04-09T02:17:03;102373.25;;;7.53;nan
75585;BME280;64162;53.508;10.476;2023-04-09T02:19:40;102367.66;;;7.34;nan
75585;BME280;64162;53.508;10.476;2023-04-09T02:22:08;102369.03;;;7.44;nan
75585;BME280;64162;53.508;10.476;2023-04-09T02:24:35;102371.66;;;7.44;nan
75585;BME280;64162;53.508;10.476;2023-04-09T02:27:03;102364.88;;;7.35;nan
75585;BME280;64162;53.508;10.476;2023-04-09T02:29:30;102364.03;;;7.35;nan
75585;BME280;64162;53.508;10.476;2023-04-09T02:31:57;102364.94;;;7.27;nan
75585;BME280;64162;53.508;10.476;2023-04-09T02:34:23;102363.88;;;7.51;nan
75585;BME280;64162;53.508;10.476;2023-04-09T02:36:50;102358.88;;;7.41;nan
75585;BME280;64162;53.508;10.476;2023-04-09T02:39:17;102363.50;;;7.54;nan
75585;BME280;64162;53.508;10.476;2023-04-09T02:41:43;102354.00;;;7.53;nan
75585;BME280;64162;53.508;10.476;2023-04-09T02:44:10;102348.19;;;7.43;nan
75585;BME280;64162;53.508;10.476;2023-04-09T02:46:37;102350.09;;;7.49;nan
75585;BME280;64162;53.508;10.476;2023-04-09T02:49:04;102353.53;;;7.35;nan
75585;BME280;64162;53.508;10.476;2023-04-09T02:51:32;102349.66;;;7.23;nan
75585;BME280;64162;53.508;10.476;2023-04-09T02:53:59;102350.47;;;7.23;nan
75585;BME280;64162;53.508;10.476;2023-04-09T02:56:25;102349.16;;;7.42;nan
75585;BME280;64162;53.508;10.476;2023-04-09T02:58:52;102345.97;;;7.32;nan
75585;BME280;64162;53.508;10.476;2023-04-09T03:01:19;102346.19;;;7.45;nan
75585;BME280;64162;53.508;10.476;2023-04-09T03:03:46;102339.03;;;7.53;nan
75585;BME280;64162;53.508;10.476;2023-04-09T03:06:13;102345.72;;;7.41;nan
75585;BME280;64162;53.508;10.476;2023-04-09T03:08:40;102346.19;;;7.60;nan
75585;BME280;64162;53.508;10.476;2023-04-09T03:11:06;102338.84;;;7.40;nan
75585;BME280;64162;53.508;10.476;2023-04-09T03:13:32;102346.25;;;7.22;nan
75585;BME280;64162;53.508;10.476;2023-04-09T03:15:59;102336.66;;;7.44;nan
75585;BME280;64162;53.508;10.476;2023-04-09T03:18:26;102332.03;;;7.46;nan
75585;BME280;64162;53.508;10.476;2023-04-09T03:20:52;102337.19;;;7.39;nan
75585;BME280;64162;53.508;10.476;2023-04-09T03:23:19;102341.22;;;7.50;nan
75585;BME280;64162;53.508;10.476;2023-04-09T03:25:46;102338.47;;;7.06;nan
75585;BME280;64162;53.508;10.476;2023-04-09T03:28:15;102332.91;;;7.24;nan
75585;BME280;64162;53.508;10.476;2023-04-09T03:30:49;102337.94;;;7.48;nan
75585;BME280;64162;53.508;10.476;2023-04-09T03:33:16;102338.03;;;7.54;nan
75585;BME280;64162;53.508;10.476;2023-04-09T03:35:50;102339.97;;;7.61;nan
75585;BME280;64162;53.508;10.476;2023-04-09T03:38:22;102336.50;;;7.45;nan
75585;BME280;64162;53.508;10.476;2023-04-09T03:40:50;102339.13;;;7.45;nan
75585;BME280;64162;53.508;10.476;2023-04-09T03:43:16;102336.66;;;7.44;nan
75585;BME280;64162;53.508;10.476;2023-04-09T03:45:48;102333.03;;;7.45;nan
75585;BME280;64162;53.508;10.476;2023-04-09T03:48:21;102332.16;;;7.67;nan
75585;BME280;64162;53.508;10.476;2023-04-09T03:50:49;102340.88;;;7.68;nan
75585;BME280;64162;53.508;10.476;2023-04-09T03:53:23;102338.28;;;7.45;nan
75585;BME280;64162;53.508;10.476;2023-04-09T03:55:51;102339.34;;;6.99;nan
75585;BME280;64162;53.508;10.476;2023-04-09T03:58:22;102337.41;;;7.52;nan
75585;BME280;64162;53.508;10.476;2023-04-09T04:00:49;102345.56;;;7.58;nan
75585;BME280;64162;53.508;10.476;2023-04-09T04:03:45;102345.56;;;7.43;nan
75585;BME280;64162;53.508;10.476;2023-04-09T04:06:17;102342.81;;;7.36;nan
75585;BME280;64162;53.508;10.476;2023-04-09T04:09:02;102341.25;;;7.27;nan
75585;BME280;64162;53.508;10.476;2023-04-09T04:11:40;102343.50;;;7.30;nan
75585;BME280;64162;53.508;10.476;2023-04-09T04:14:07;102333.25;;;7.21;nan
75585;BME280;64162;53.508;10.476;2023-04-09T04:16:34;102340.09;;;7.44;nan
75585;BME280;64162;53.508;10.476;2023-04-09T04:19:02;102343.28;;;7.40;nan
75585;BME280;64162;53.508;10.476;2023-04-09T04:21:31;102341.97;;;7.59;nan
75585;BME280;64162;53.508;10.476;2023-04-09T04:24:00;102343.84;;;7.50;nan
75585;BME280;64162;53.508;10.476;2023-04-09T04:26:28;102345.38;;;7.59;nan
75585;BME280;64162;53.508;10.476;2023-04-09T04:28:55;102342.94;;;7.58;nan
75585;BME280;64162;53.508;10.476;2023-04-09T04:31:50;102341.13;;;7.21;nan
75585;BME280;64162;53.508;10.476;2023-04-09T04:34:20;102337.13;;;7.47;nan
75585;BME280;64162;53.508;10.476;2023-04-09T04:36:54;102336.94;;;7.49;nan
75585;BME280;64162;53.508;10.476;2023-04-09T04:39:21;102341.84;;;7.67;nan
75585;BME280;64162;53.508;10.476;2023-04-09T04:41:59;102349.56;;;7.53;nan
75585;BME280;64162;53.508;10.476;2023-04-09T04:44:27;102345.22;;;7.61;nan
75585;BME280;64162;53.508;10.476;2023-04-09T04:47:10;102346.94;;;7.68;nan
75585;BME280;64162;53.508;10.476;2023-04-09T04:49:37;102347.31;;;7.65;nan
75585;BME280;64162;53.508;10.476;2023-04-09T04:52:05;102345.56;;;7.58;nan
75585;BME280;64162;53.508;10.476;2023-04-09T04:54:33;102344.59;;;7.59;nan
75585;BME280;64162;53.508;10.476;2023-04-09T04:57:00;102351.50;;;7.74;nan
75585;BME280;64162;53.508;10.476;2023-04-09T04:59:36;102347.78;;;7.69;nan
75585;BME280;64162;53.508;10.476;2023-04-09T05:02:05;102342.88;;;7.66;nan
75585;BME280;64162;53.508;10.476;2023-04-09T05:04:42;102345.94;;;7.69;nan
75585;BME280;64162;53.508;10.476;2023-04-09T05:07:11;102347.72;;;7.39;nan
75585;BME280;64162;53.508;10.476;2023-04-09T05:09:46;102354.53;;;7.48;nan
75585;BME280;64162;53.508;10.476;2023-04-09T05:12:12;102352.84;;;7.70;nan
75585;BME280;64162;53.508;10.476;2023-04-09T05:14:40;102356.28;;;7.56;nan
75585;BME280;64162;53.508;10.476;2023-04-09T05:17:07;102363.84;;;7.74;nan
75585;BME280;64162;53.508;10.476;2023-04-09T05:19:42;102365.44;;;7.75;nan
75585;BME280;64162;53.508;10.476;2023-04-09T05:22:11;102368.81;;;7.83;nan
75585;BME280;64162;53.508;10.476;2023-04-09T05:24:38;102362.31;;;7.79;nan
75585;BME280;64162;53.508;10.476;2023-04-09T05:27:04;102359.84;;;7.78;nan
75585;BME280;64162;53.508;10.476;2023-04-09T05:29:31;102369.91;;;7.74;nan
75585;BME280;64162;53.508;10.476;2023-04-09T05:31:58;102365.22;;;7.84;nan
75585;BME280;64162;53.508;10.476;2023-04-09T05:34:30;102359.03;;;7.92;nan
75585;BME280;64162;53.508;10.476;2023-04-09T05:36:57;102370.81;;;7.96;nan
75585;BME280;64162;53.508;10.476;2023-04-09T05:39:24;102368.72;;;8.06;nan
75585;BME280;64162;53.508;10.476;2023-04-09T05:41:51;102362.66;;;7.91;nan
75585;BME280;64162;53.508;10.476;2023-04-09T05:44:31;102378.34;;;8.13;nan
75585;BME280;64162;53.508;10.476;2023-04-09T05:47:06;102374.09;;;8.27;nan
75585;BME280;64162;53.508;10.476;2023-04-09T05:49:40;102371.66;;;7.82;nan
75585;BME280;64162;53.508;10.476;2023-04-09T05:52:11;102372.56;;;8.33;nan
75585;BME280;64162;53.508;10.476;2023-04-09T05:54:37;102376.63;;;8.06;nan
75585;BME280;64162;53.508;10.476;2023-04-09T05:57:07;102379.72;;;8.09;nan
75585;BME280;64162;53.508;10.476;2023-04-09T05:59:36;102374.34;;;7.88;nan
75585;BME280;64162;53.508;10.476;2023-04-09T06:02:02;102377.47;;;7.92;nan
75585;BME280;64162;53.508;10.476;2023-04-09T06:04:31;102374.63;;;7.79;nan
75585;BME280;64162;53.508;10.476;2023-04-09T06:06:58;102382.09;;;8.34;nan
75585;BME280;64162;53.508;10.476;2023-04-09T06:09:25;102371.72;;;8.47;nan
75585;BME280;64162;53.508;10.476;2023-04-09T06:11:53;102376.09;;;8.40;nan
75585;BME280;64162;53.508;10.476;2023-04-09T06:14:19;102381.59;;;8.15;nan
75585;BME280;64162;53.508;10.476;2023-04-09T06:16:46;102372.81;;;8.23;nan
75585;BME280;64162;53.508;10.476;2023-04-09T06:19:14;102375.34;;;8.46;nan
75585;BME280;64162;53.508;10.476;2023-04-09T06:21:41;102372.38;;;8.34;nan
75585;BME280;64162;53.508;10.476;2023-04-09T06:24:07;102377.03;;;8.68;nan
75585;BME280;64162;53.508;10.476;2023-04-09T06:26:34;102373.09;;;8.13;nan
75585;BME280;64162;53.508;10.476;2023-04-09T06:29:01;102382.75;;;8.57;nan
75585;BME280;64162;53.508;10.476;2023-04-09T06:31:28;102385.53;;;8.49;nan
75585;BME280;64162;53.508;10.476;2023-04-09T06:33:54;102393.00;;;8.31;nan
75585;BME280;64162;53.508;10.476;2023-04-09T06:36:21;102383.41;;;8.59;nan
75585;BME280;64162;53.508;10.476;2023-04-09T06:38:48;102379.75;;;8.74;nan
75585;BME280;64162;53.508;10.476;2023-04-09T06:41:14;102384.03;;;8.97;nan
75585;BME280;64162;53.508;10.476;2023-04-09T06:43:41;102386.78;;;8.89;nan
75585;BME280;64162;53.508;10.476;2023-04-09T06:46:08;102386.00;;;8.73;nan
75585;BME280;64162;53.508;10.476;2023-04-09T06:48:34;102386.63;;;8.75;nan
75585;BME280;64162;53.508;10.476;2023-04-09T06:51:01;102386.03;;;9.16;nan
75585;BME280;64162;53.508;10.476;2023-04-09T06:53:28;102388.25;;;9.12;nan
75585;BME280;64162;53.508;10.476;2023-04-09T06:55:54;102395.09;;;8.71;nan
75585;BME280;64162;53.508;10.476;2023-04-09T06:58:22;102396.06;;;8.85;nan
75585;BME280;64162;53.508;10.476;2023-04-09T07:00:48;102388.22;;;8.91;nan
75585;BME280;64162;53.508;10.476;2023-04-09T07:03:15;102388.41;;;8.90;nan
75585;BME280;64162;53.508;10.476;2023-04-09T07:05:41;102395.38;;;8.76;nan
75585;BME280;64162;53.508;10.476;2023-04-09T07:08:08;102397.50;;;9.29;nan
75585;BME280;64162;53.508;10.476;2023-04-09T07:10:35;102388.84;;;9.14;nan
75585;BME280;64162;53.508;10.476;2023-04-09T07:13:01;102401.91;;;9.01;nan
75585;BME280;64162;53.508;10.476;2023-04-09T07:15:28;102396.84;;;9.21;nan
75585;BME280;64162;53.508;10.476;2023-04-09T07:17:55;102401.78;;;9.30;nan
75585;BME280;64162;53.508;10.476;2023-04-09T07:20:23;102394.66;;;9.03;nan
75585;BME280;64162;53.508;10.476;2023-04-09T07:22:49;102393.31;;;9.14;nan
75585;BME280;64162;53.508;10.476;2023-04-09T07:25:16;102403.97;;;9.48;nan
75585;BME280;64162;53.508;10.476;2023-04-09T07:27:42;102399.72;;;9.47;nan
75585;BME280;64162;53.508;10.476;2023-04-09T07:30:10;102403.00;;;9.56;nan
75585;BME280;64162;53.508;10.476;2023-04-09T07:32:37;102392.78;;;9.18;nan
75585;BME280;64162;53.508;10.476;2023-04-09T07:35:06;102400.50;;;9.48;nan
75585;BME280;64162;53.508;10.476;2023-04-09T07:37:33;102396.44;;;9.24;nan
75585;BME280;64162;53.508;10.476;2023-04-09T07:39:59;102400.84;;;9.66;nan
75585;BME280;64162;53.508;10.476;2023-04-09T07:42:26;102399.91;;;9.73;nan
75585;BME280;64162;53.508;10.476;2023-04-09T07:44:53;102397.59;;;9.91;nan
75585;BME280;64162;53.508;10.476;2023-04-09T07:47:21;102405.84;;;9.82;nan
75585;BME280;64162;53.508;10.476;2023-04-09T07:49:48;102411.84;;;9.69;nan
75585;BME280;64162;53.508;10.476;2023-04-09T07:52:14;102407.97;;;9.93;nan
75585;BME280;64162;53.508;10.476;2023-04-09T07:54:41;102408.25;;;9.77;nan
75585;BME280;64162;53.508;10.476;2023-04-09T07:57:07;102412.91;;;10.02;nan
75585;BME280;64162;53.508;10.476;2023-04-09T07:59:34;102411.03;;;9.96;nan
75585;BME280;64162;53.508;10.476;2023-04-09T08:02:01;102405.69;;;10.18;nan
75585;BME280;64162;53.508;10.476;2023-04-09T08:04:28;102411.38;;;10.15;nan
75585;BME280;64162;53.508;10.476;2023-04-09T08:06:55;102409.94;;;10.12;nan
75585;BME280;64162;53.508;10.476;2023-04-09T08:09:21;102408.84;;;10.34;nan
75585;BME280;64162;53.508;10.476;2023-04-09T08:11:48;102411.75;;;9.84;nan
75585;BME280;64162;53.508;10.476;2023-04-09T08:14:16;102411.97;;;9.89;nan
75585;BME280;64162;53.508;10.476;2023-04-09T08:16:46;102407.16;;;9.65;nan
75585;BME280;64162;53.508;10.476;2023-04-09T08:19:14;102410.13;;;9.83;nan
75585;BME280;64162;53.508;10.476;2023-04-09T08:21:42;102403.16;;;10.03;nan
75585;BME280;64162;53.508;10.476;2023-04-09T08:24:11;102407.13;;;10.20;nan
75585;BME280;64162;53.508;10.476;2023-04-09T08:26:39;102409.78;;;10.20;nan
75585;BME280;64162;53.508;10.476;2023-04-09T08:29:06;102411.97;;;9.82;nan
75585;BME280;64162;53.508;10.476;2023-04-09T08:31:34;102411.09;;;9.75;nan
75585;BME280;64162;53.508;10.476;2023-04-09T08:34:02;102414.06;;;9.66;nan
75585;BME280;64162;53.508;10.476;2023-04-09T08:36:28;102412.72;;;9.76;nan
75585;BME280;64162;53.508;10.476;2023-04-09T08:38:55;102404.66;;;9.84;nan
75585;BME280;64162;53.508;10.476;2023-04-09T08:41:23;102416.72;;;9.93;nan
75585;BME280;64162;53.508;10.476;2023-04-09T08:43:51;102414.63;;;9.61;nan
75585;BME280;64162;53.508;10.476;2023-04-09T08:46:23;102411.66;;;9.71;nan
75585;BME280;64162;53.508;10.476;2023-04-09T08:48:50;102414.66;;;10.17;nan
75585;BME280;64162;53.508;10.476;2023-04-09T08:51:19;102411.81;;;10.18;nan
75585;BME280;64162;53.508;10.476;2023-04-09T08:53:57;102412.13;;;10.43;nan
75585;BME280;64162;53.508;10.476;2023-04-09T08:56:25;102411.94;;;10.44;nan
75585;BME280;64162;53.508;10.476;2023-04-09T08:58:53;102417.47;;;10.15;nan
75585;BME280;64162;53.508;10.476;2023-04-09T09:01:25;102410.13;;;10.51;nan
75585;BME280;64162;53.508;10.476;2023-04-09T09:03:57;102419.03;;;10.91;nan
75585;BME280;64162;53.508;10.476;2023-04-09T09:06:29;102421.81;;;10.01;nan
75585;BME280;64162;53.508;10.476;2023-04-09T09:09:07;102413.25;;;10.75;nan
75585;BME280;64162;53.508;10.476;2023-04-09T09:11:38;102405.44;;;11.40;nan
75585;BME280;64162;53.508;10.476;2023-04-09T09:14:07;102416.38;;;10.98;nan
75585;BME280;64162;53.508;10.476;2023-04-09T09:16:35;102405.44;;;11.27;nan
75585;BME280;64162;53.508;10.476;2023-04-09T09:19:05;102410.91;;;11.12;nan
75585;BME280;64162;53.508;10.476;2023-04-09T09:21:31;102408.66;;;10.96;nan
75585;BME280;64162;53.508;10.476;2023-04-09T09:23:58;102410.06;;;10.92;nan
75585;BME280;64162;53.508;10.476;2023-04-09T09:26:29;102410.09;;;11.12;nan
75585;BME280;64162;53.508;10.476;2023-04-09T09:28:56;102413.38;;;11.47;nan
75585;BME280;64162;53.508;10.476;2023-04-09T09:31:25;102415.84;;;11.48;nan
75585;BME280;64162;53.508;10.476;2023-04-09T09:33:52;102423.59;;;11.69;nan
75585;BME280;64162;53.508;10.476;2023-04-09T09:36:29;102403.97;;;12.03;nan
75585;BME280;64162;53.508;10.476;2023-04-09T09:38:58;102407.66;;;11.96;nan
75585;BME280;64162;53.508;10.476;2023-04-09T09:41:28;102412.78;;;11.91;nan
75585;BME280;64162;53.508;10.476;2023-04-09T09:43:55;102409.53;;;11.88;nan
75585;BME280;64162;53.508;10.476;2023-04-09T09:46:23;102406.06;;;11.81;nan
75585;BME280;64162;53.508;10.476;2023-04-09T09:48:51;102402.81;;;11.66;nan
75585;BME280;64162;53.508;10.476;2023-04-09T09:51:21;102407.06;;;11.80;nan
75585;BME280;64162;53.508;10.476;2023-04-09T09:53:54;102408.09;;;11.47;nan
75585;BME280;64162;53.508;10.476;2023-04-09T09:56:24;102400.34;;;11.32;nan
75585;BME280;64162;53.508;10.476;2023-04-09T09:59:25;102402.19;;;11.25;nan
75585;BME280;64162;53.508;10.476;2023-04-09T10:02:03;102402.59;;;11.42;nan
75585;BME280;64162;53.508;10.476;2023-04-09T10:04:33;102396.06;;;11.31;nan
75585;BME280;64162;53.508;10.476;2023-04-09T10:07:03;102404.63;;;11.66;nan
75585;BME280;64162;53.508;10.476;2023-04-09T10:09:34;102404.22;;;11.62;nan
75585;BME280;64162;53.508;10.476;2023-04-09T10:12:01;102403.63;;;11.47;nan
75585;BME280;64162;53.508;10.476;2023-04-09T10:14:30;102403.63;;;11.41;nan
75585;BME280;64162;53.508;10.476;2023-04-09T10:16:57;102404.63;;;11.59;nan
75585;BME280;64162;53.508;10.476;2023-04-09T10:19:23;102399.94;;;11.55;nan
75585;BME280;64162;53.508;10.476;2023-04-09T10:21:53;102399.75;;;11.76;nan
75585;BME280;64162;53.508;10.476;2023-04-09T10:24:22;102404.38;;;12.00;nan
75585;BME280;64162;53.508;10.476;2023-04-09T10:26:52;102396.69;;;11.79;nan
75585;BME280;64162;53.508;10.476;2023-04-09T10:29:27;102397.09;;;11.89;nan
75585;BME280;64162;53.508;10.476;2023-04-09T10:32:05;102394.38;;;12.09;nan
75585;BME280;64162;53.508;10.476;2023-04-09T10:34:40;102402.53;;;12.14;nan
75585;BME280;64162;53.508;10.476;2023-04-09T10:37:09;102388.75;;;11.66;nan
75585;BME280;64162;53.508;10.476;2023-04-09T10:39:43;102393.41;;;11.57;nan
75585;BME280;64162;53.508;10.476;2023-04-09T10:42:31;102392.41;;;11.45;nan
75585;BME280;64162;53.508;10.476;2023-04-09T10:45:09;102389.34;;;11.55;nan
75585;BME280;64162;53.508;10.476;2023-04-09T10:47:41;102389.13;;;11.23;nan
75585;BME280;64162;53.508;10.476;2023-04-09T10:50:24;102385.00;;;12.06;nan
75585;BME280;64162;53.508;10.476;2023-04-09T10:52:53;102392.41;;;11.25;nan
75585;BME280;64162;53.508;10.476;2023-04-09T10:55:39;102392.72;;;12.21;nan
75585;BME280;64162;53.508;10.476;2023-04-09T10:58:08;102390.59;;;11.78;nan
75585;BME280;64162;53.508;10.476;2023-04-09T11:00:38;102392.63;;;11.70;nan
75585;BME280;64162;53.508;10.476;2023-04-09T11:03:20;102386.50;;;11.69;nan
75585;BME280;64162;53.508;10.476;2023-04-09T11:08:22;102390.66;;;12.74;nan
75585;BME280;64162;53.508;10.476;2023-04-09T11:10:48;102380.81;;;13.43;nan
75585;BME280;64162;53.508;10.476;2023-04-09T11:13:17;102377.44;;;13.97;nan
75585;BME280;64162;53.508;10.476;2023-04-09T11:15:45;102377.75;;;17.37;nan
75585;BME280;64162;53.508;10.476;2023-04-09T11:18:19;102367.56;;;15.12;nan
75585;BME280;64162;53.508;10.476;2023-04-09T11:20:46;102375.13;;;15.49;nan
75585;BME280;64162;53.508;10.476;2023-04-09T11:23:14;102379.31;;;17.66;nan
75585;BME280;64162;53.508;10.476;2023-04-09T11:25:41;102362.59;;;15.96;nan
75585;BME280;64162;53.508;10.476;2023-04-09T11:28:07;102369.66;;;16.54;nan
75585;BME280;64162;53.508;10.476;2023-04-09T11:30:34;102373.56;;;16.23;nan
75585;BME280;64162;53.508;10.476;2023-04-09T11:33:02;102372.03;;;16.27;nan
75585;BME280;64162;53.508;10.476;2023-04-09T11:35:32;102369.81;;;15.49;nan
75585;BME280;64162;53.508;10.476;2023-04-09T11:37:59;102372.03;;;14.99;nan
75585;BME280;64162;53.508;10.476;2023-04-09T11:40:26;102366.19;;;15.44;nan
75585;BME280;64162;53.508;10.476;2023-04-09T11:42:55;102374.31;;;15.72;nan
75585;BME280;64162;53.508;10.476;2023-04-09T11:45:24;102368.50;;;15.29;nan
75585;BME280;64162;53.508;10.476;2023-04-09T11:47:51;102370.16;;;15.53;nan
75585;BME280;64162;53.508;10.476;2023-04-09T11:50:18;102363.31;;;14.81;nan
75585;BME280;64162;53.508;10.476;2023-04-09T11:52:47;102369.22;;;14.17;nan
75585;BME280;64162;53.508;10.476;2023-04-09T11:55:27;102370.38;;;14.87;nan
75585;BME280;64162;53.508;10.476;2023-04-09T11:57:59;102364.41;;;14.44;nan
75585;BME280;64162;53.508;10.476;2023-04-09T12:00:28;102359.22;;;17.47;nan
75585;BME280;64162;53.508;10.476;2023-04-09T12:03:00;102360.91;;;23.42;nan
75585;BME280;64162;53.508;10.476;2023-04-09T12:05:28;102358.31;;;22.98;nan
75585;BME280;64162;53.508;10.476;2023-04-09T12:08:02;102360.13;;;19.14;nan
75585;BME280;64162;53.508;10.476;2023-04-09T12:10:37;102360.63;;;18.10;nan
75585;BME280;64162;53.508;10.476;2023-04-09T12:13:08;102358.97;;;18.03;nan
75585;BME280;64162;53.508;10.476;2023-04-09T12:15:37;102357.78;;;18.64;nan
75585;BME280;64162;53.508;10.476;2023-04-09T12:18:12;102356.94;;;22.62;nan
75585;BME280;64162;53.508;10.476;2023-04-09T12:20:41;102349.84;;;23.15;nan
75585;BME280;64162;53.508;10.476;2023-04-09T12:23:10;102348.53;;;24.87;nan
75585;BME280;64162;53.508;10.476;2023-04-09T12:25:41;102352.09;;;22.59;nan
75585;BME280;64162;53.508;10.476;2023-04-09T12:28:09;102345.41;;;26.92;nan
75585;BME280;64162;53.508;10.476;2023-04-09T12:30:36;102335.56;;;28.66;nan
75585;BME280;64162;53.508;10.476;2023-04-09T12:33:03;102347.28;;;27.14;nan
75585;BME280;64162;53.508;10.476;2023-04-09T12:35:30;102346.13;;;25.31;nan
75585;BME280;64162;53.508;10.476;2023-04-09T12:37:57;102340.09;;;22.85;nan
75585;BME280;64162;53.508;10.476;2023-04-09T12:40:25;102346.97;;;22.67;nan
75585;BME280;64162;53.508;10.476;2023-04-09T12:42:52;102335.59;;;24.65;nan
75585;BME280;64162;53.508;10.476;2023-04-09T12:45:20;102327.38;;;28.14;nan
75585;BME280;64162;53.508;10.476;2023-04-09T12:47:47;102328.00;;;28.03;nan
75585;BME280;64162;53.508;10.476;2023-04-09T12:50:14;102332.97;;;26.33;nan
75585;BME280;64162;53.508;10.476;2023-04-09T12:52:44;102325.59;;;28.87;nan
75585;BME280;64162;53.508;10.476;2023-04-09T12:55:12;102331.53;;;28.55;nan
75585;BME280;64162;53.508;10.476;2023-04-09T12:57:42;102323.41;;;25.86;nan
75585;BME280;64162;53.508;10.476;2023-04-09T13:00:10;102321.22;;;24.13;nan
75585;BME280;64162;53.508;10.476;2023-04-09T13:02:37;102324.06;;;24.41;nan
75585;BME280;64162;53.508;10.476;2023-04-09T13:05:04;102315.81;;;24.51;nan
75585;BME280;64162;53.508;10.476;2023-04-09T13:07:30;102313.97;;;25.43;nan
75585;BME280;64162;53.508;10.476;2023-04-09T13:09:57;102313.72;;;27.89;nan
75585;BME280;64162;53.508;10.476;2023-04-09T13:12:24;102309.84;;;29.77;nan
75585;BME280;64162;53.508;10.476;2023-04-09T13:14:52;102315.75;;;29.12;nan
75585;BME280;64162;53.508;10.476;2023-04-09T13:17:20;102310.97;;;30.46;nan
75585;BME280;64162;53.508;10.476;2023-04-09T13:19:46;102301.06;;;29.71;nan
75585;BME280;64162;53.508;10.476;2023-04-09T13:22:13;102301.50;;;31.09;nan
75585;BME280;64162;53.508;10.476;2023-04-09T13:24:40;102305.81;;;31.10;nan